createdAt,value
2018-07-30T00:00:45.537Z,21.80
2018-07-30T00:03:13.602Z,21.80
2018-07-30T00:05:41.725Z,21.80
2018-07-30T00:08:09.842Z,21.80
2018-07-30T00:10:37.982Z,21.70
2018-07-30T00:13:06.092Z,21.70
2018-07-30T00:15:34.267Z,21.60
2018-07-30T00:18:02.416Z,21.60
2018-07-30T00:20:30.553Z,21.60
2018-07-30T00:22:58.714Z,21.60
2018-07-30T00:25:26.858Z,21.50
2018-07-30T00:27:54.993Z,21.50
2018-07-30T00:30:23.239Z,21.50
2018-07-30T00:32:51.409Z,21.50
2018-07-30T00:35:19.541Z,21.50
2018-07-30T00:37:47.667Z,21.40
2018-07-30T00:40:16.787Z,21.40
2018-07-30T00:42:47.011Z,21.40
2018-07-30T00:45:15.142Z,21.40
2018-07-30T00:47:43.563Z,21.30
2018-07-30T00:50:11.690Z,21.30
2018-07-30T00:52:40.038Z,21.30
2018-07-30T00:55:08.186Z,21.20
2018-07-30T00:57:36.858Z,21.20
2018-07-30T01:00:06.223Z,21.20
2018-07-30T01:02:34.347Z,21.20
2018-07-30T01:05:02.517Z,21.10
2018-07-30T01:07:30.626Z,21.10
2018-07-30T01:09:58.731Z,21.10
2018-07-30T01:12:26.854Z,21.10
2018-07-30T01:14:55.011Z,21.00
2018-07-30T01:17:23.149Z,21.00
2018-07-30T01:19:51.290Z,21.00
2018-07-30T01:22:19.386Z,21.00
2018-07-30T01:24:47.505Z,21.00
2018-07-30T01:27:15.641Z,20.90
2018-07-30T01:29:43.742Z,20.90
2018-07-30T01:32:11.890Z,20.90
2018-07-30T01:34:40.019Z,20.90
2018-07-30T01:37:14.953Z,20.90
2018-07-30T01:39:43.817Z,20.80
2018-07-30T01:42:11.946Z,20.80
2018-07-30T01:44:40.331Z,20.80
2018-07-30T01:47:08.469Z,20.80
2018-07-30T01:49:36.571Z,20.80
2018-07-30T01:52:05.165Z,20.80
2018-07-30T01:54:33.303Z,20.80
2018-07-30T01:57:01.465Z,20.80
2018-07-30T01:59:29.580Z,20.80
2018-07-30T02:01:57.713Z,20.80
2018-07-30T02:04:25.852Z,20.80
2018-07-30T02:06:53.973Z,20.80
2018-07-30T02:09:22.113Z,20.80
2018-07-30T02:14:18.138Z,20.90
2018-07-30T02:16:46.266Z,21.00
2018-07-30T02:19:14.429Z,21.10
2018-07-30T02:21:42.543Z,21.10
2018-07-30T02:24:10.642Z,21.00
2018-07-30T02:26:38.858Z,21.00
2018-07-30T02:29:06.996Z,20.90
2018-07-30T02:31:35.062Z,20.80
2018-07-30T02:34:03.201Z,20.80
2018-07-30T02:36:31.345Z,20.70
2018-07-30T02:38:59.482Z,20.70
2018-07-30T02:41:27.594Z,20.70
2018-07-30T02:43:56.154Z,20.70
2018-07-30T02:46:24.286Z,20.70
2018-07-30T02:48:52.400Z,20.70
2018-07-30T02:51:20.530Z,20.60
2018-07-30T02:53:48.674Z,20.60
2018-07-30T02:56:16.778Z,20.60
2018-07-30T02:58:44.899Z,20.50
2018-07-30T03:01:13.026Z,20.50
2018-07-30T03:03:42.152Z,20.50
2018-07-30T03:06:10.276Z,20.50
2018-07-30T03:08:38.414Z,20.50
2018-07-30T03:11:06.607Z,20.50
2018-07-30T03:13:34.709Z,20.50
2018-07-30T03:16:02.883Z,20.50
2018-07-30T03:18:31.050Z,20.50
2018-07-30T03:20:59.196Z,20.50
2018-07-30T03:23:27.337Z,20.50
2018-07-30T03:25:55.462Z,20.50
2018-07-30T03:28:23.582Z,20.50
2018-07-30T03:30:51.726Z,20.50
2018-07-30T03:33:19.931Z,20.50
2018-07-30T03:35:48.051Z,20.50
2018-07-30T03:38:16.204Z,20.40
2018-07-30T03:40:44.360Z,20.40
2018-07-30T03:43:12.491Z,20.50
2018-07-30T03:45:40.607Z,20.50
2018-07-30T03:48:08.843Z,20.50
2018-07-30T03:50:36.973Z,20.50
2018-07-30T03:53:05.413Z,20.60
2018-07-30T03:55:33.579Z,20.60
2018-07-30T03:58:01.729Z,20.60
2018-07-30T04:00:29.862Z,20.60
2018-07-30T04:02:58.001Z,20.70
2018-07-30T04:05:26.139Z,20.70
2018-07-30T04:07:54.270Z,20.80
2018-07-30T04:10:22.382Z,20.90
2018-07-30T04:12:50.549Z,20.90
2018-07-30T04:15:18.621Z,21.00
2018-07-30T04:17:46.738Z,21.00
2018-07-30T04:20:14.837Z,21.10
2018-07-30T04:22:43.862Z,21.10
2018-07-30T04:25:11.962Z,21.20
2018-07-30T04:27:40.083Z,21.20
2018-07-30T04:30:08.198Z,21.30
2018-07-30T04:32:36.339Z,21.30
2018-07-30T04:35:04.467Z,21.40
2018-07-30T04:37:32.582Z,21.40
2018-07-30T04:40:00.677Z,21.40
2018-07-30T04:42:28.814Z,21.50
2018-07-30T04:44:56.930Z,21.50
2018-07-30T04:47:25.067Z,21.50
2018-07-30T04:49:53.228Z,21.50
2018-07-30T04:52:21.340Z,21.50
2018-07-30T04:54:49.426Z,21.50
2018-07-30T04:57:17.534Z,21.60
2018-07-30T04:59:45.680Z,21.70
2018-07-30T05:02:13.808Z,21.70
2018-07-30T05:04:41.938Z,21.80
2018-07-30T05:07:10.133Z,21.80
2018-07-30T05:09:38.255Z,21.80
2018-07-30T05:12:06.407Z,21.90
2018-07-30T05:14:34.505Z,22.00
2018-07-30T05:17:02.655Z,22.10
2018-07-30T05:19:30.779Z,22.20
2018-07-30T05:21:58.894Z,22.20
2018-07-30T05:24:27.073Z,22.20
2018-07-30T05:26:55.209Z,22.30
2018-07-30T05:29:23.326Z,22.30
2018-07-30T05:31:51.450Z,22.40
2018-07-30T05:34:19.609Z,22.40
2018-07-30T05:36:47.731Z,22.50
2018-07-30T05:39:15.849Z,22.50
2018-07-30T05:41:43.944Z,22.50
2018-07-30T05:44:12.091Z,22.50
2018-07-30T05:46:40.237Z,22.50
2018-07-30T05:49:08.328Z,22.50
2018-07-30T05:51:36.514Z,22.60
2018-07-30T05:54:04.711Z,22.60
2018-07-30T05:56:32.857Z,22.70
2018-07-30T05:59:00.957Z,22.70
2018-07-30T06:01:29.071Z,22.80
2018-07-30T06:03:57.199Z,22.80
2018-07-30T06:06:25.305Z,22.90
2018-07-30T06:08:53.420Z,23.00
2018-07-30T06:11:21.583Z,23.00
2018-07-30T06:13:49.751Z,23.10
2018-07-30T06:16:17.870Z,23.20
2018-07-30T06:18:45.994Z,23.20
2018-07-30T06:21:14.119Z,23.30
2018-07-30T06:23:42.256Z,23.40
2018-07-30T06:26:10.362Z,23.50
2018-07-30T06:28:38.467Z,23.40
2018-07-30T06:31:06.813Z,23.50
2018-07-30T06:33:34.940Z,23.50
2018-07-30T06:36:03.058Z,23.60
2018-07-30T06:38:31.252Z,23.70
2018-07-30T06:40:59.334Z,23.80
2018-07-30T06:45:55.379Z,23.90
2018-07-30T06:48:23.615Z,24.00
2018-07-30T06:50:51.722Z,24.00
2018-07-30T06:53:19.880Z,24.10
2018-07-30T06:55:48.036Z,24.20
2018-07-30T06:58:16.246Z,24.30
2018-07-30T07:00:44.382Z,24.40
2018-07-30T07:03:12.530Z,24.50
2018-07-30T07:05:40.714Z,24.60
2018-07-30T07:08:08.869Z,24.70
2018-07-30T07:10:36.964Z,24.80
2018-07-30T07:13:05.092Z,24.80
2018-07-30T07:15:33.222Z,24.90
2018-07-30T07:18:01.358Z,25.00
2018-07-30T07:20:29.498Z,25.00
2018-07-30T07:22:57.629Z,25.10
2018-07-30T07:25:25.766Z,25.20
2018-07-30T07:27:53.942Z,25.30
2018-07-30T07:30:22.001Z,25.50
2018-07-30T07:32:50.163Z,25.60
2018-07-30T07:35:18.296Z,25.80
2018-07-30T07:37:46.434Z,25.90
2018-07-30T07:40:14.579Z,25.90
2018-07-30T07:42:42.765Z,26.00
2018-07-30T07:45:10.884Z,26.10
2018-07-30T07:47:39.013Z,26.20
2018-07-30T07:50:07.772Z,26.30
2018-07-30T07:52:35.856Z,26.40
2018-07-30T07:55:04.858Z,26.40
2018-07-30T07:57:33.004Z,26.60
2018-07-30T08:00:07.542Z,26.70
2018-07-30T08:02:35.653Z,26.80
2018-07-30T08:05:04.520Z,27.00
2018-07-30T08:10:00.678Z,27.20
2018-07-30T08:12:28.808Z,27.30
2018-07-30T08:14:56.954Z,27.40
2018-07-30T08:17:25.165Z,27.70
2018-07-30T08:19:53.285Z,27.80
2018-07-30T08:22:21.476Z,28.10
2018-07-30T08:24:49.588Z,28.30
2018-07-30T08:27:17.746Z,28.40
2018-07-30T08:29:45.895Z,28.60
2018-07-30T08:32:14.080Z,28.70
2018-07-30T08:34:42.179Z,29.00
2018-07-30T08:37:11.350Z,29.00
2018-07-30T08:39:39.443Z,29.30
2018-07-30T08:42:07.592Z,29.30
2018-07-30T08:44:35.713Z,29.40
2018-07-30T08:47:03.836Z,29.60
2018-07-30T08:49:31.926Z,29.80
2018-07-30T08:52:00.083Z,29.90
2018-07-30T08:54:29.225Z,30.00
2018-07-30T08:56:57.392Z,30.20
2018-07-30T08:59:25.493Z,30.30
2018-07-30T09:01:53.640Z,30.30
2018-07-30T09:04:21.973Z,30.40
2018-07-30T09:06:50.136Z,30.40
2018-07-30T09:09:18.239Z,30.50
2018-07-30T09:11:46.441Z,30.60
2018-07-30T09:14:14.550Z,30.60
2018-07-30T09:16:42.747Z,30.70
2018-07-30T09:19:10.858Z,30.80
2018-07-30T09:21:38.991Z,31.00
2018-07-30T09:24:07.214Z,31.00
2018-07-30T09:26:35.381Z,31.30
2018-07-30T09:29:03.598Z,31.30
2018-07-30T09:31:31.749Z,31.40
2018-07-30T09:34:06.605Z,31.50
2018-07-30T09:36:34.742Z,31.40
2018-07-30T09:39:02.905Z,31.60
2018-07-30T09:41:31.005Z,31.50
2018-07-30T09:43:59.209Z,31.60
2018-07-30T09:46:27.302Z,31.40
2018-07-30T09:48:55.406Z,31.60
2018-07-30T09:51:23.529Z,31.70
2018-07-30T09:53:51.657Z,32.00
2018-07-30T09:56:19.826Z,31.90
2018-07-30T09:58:47.942Z,32.10
2018-07-30T10:01:30.998Z,32.50
2018-07-30T10:04:00.061Z,33.20
2018-07-30T10:06:28.241Z,34.10
2018-07-30T10:08:56.338Z,34.40
2018-07-30T10:11:24.443Z,34.80
2018-07-30T10:13:52.922Z,35.00
2018-07-30T10:18:55.603Z,36.70
2018-07-30T10:21:23.730Z,36.60
2018-07-30T10:23:51.895Z,35.90
2018-07-30T10:26:20.065Z,35.50
2018-07-30T10:28:48.744Z,35.80
2018-07-30T10:31:16.898Z,36.60
2018-07-30T10:33:45.090Z,38.00
2018-07-30T10:36:13.298Z,38.70
2018-07-30T10:38:41.458Z,39.70
2018-07-30T10:41:09.589Z,40.20
2018-07-30T10:43:37.705Z,40.60
2018-07-30T10:46:05.852Z,40.30
2018-07-30T10:48:33.991Z,40.90
2018-07-30T10:51:03.077Z,41.30
2018-07-30T10:53:31.173Z,41.60
2018-07-30T10:55:59.349Z,41.80
2018-07-30T10:58:27.508Z,42.20
2018-07-30T11:00:55.660Z,42.20
2018-07-30T11:03:24.128Z,42.70
2018-07-30T11:05:52.270Z,43.10
2018-07-30T11:08:21.202Z,42.80
2018-07-30T11:10:49.370Z,43.10
2018-07-30T11:13:17.480Z,43.80
2018-07-30T11:15:45.589Z,43.00
2018-07-30T11:18:13.726Z,42.80
2018-07-30T11:20:41.834Z,43.40
2018-07-30T11:23:09.954Z,43.30
2018-07-30T11:25:38.125Z,43.60
2018-07-30T11:28:13.019Z,44.20
2018-07-30T11:30:41.353Z,44.60
2018-07-30T11:33:09.523Z,44.40
2018-07-30T11:35:37.649Z,44.40
2018-07-30T11:38:05.731Z,43.90
2018-07-30T11:40:33.921Z,44.10
2018-07-30T11:43:02.439Z,43.80
2018-07-30T11:45:30.536Z,43.90
2018-07-30T11:47:59.533Z,44.20
2018-07-30T11:50:27.676Z,44.10
2018-07-30T11:52:55.810Z,44.50
2018-07-30T11:55:23.930Z,44.60
2018-07-30T11:57:52.095Z,45.20
2018-07-30T12:00:20.209Z,44.80
2018-07-30T12:02:48.314Z,44.60
2018-07-30T12:05:16.445Z,45.20
2018-07-30T12:07:44.612Z,45.00
2018-07-30T12:10:12.741Z,44.70
2018-07-30T12:12:40.927Z,44.80
2018-07-30T14:00:08.819Z,37.70
2018-07-30T14:02:36.917Z,37.70
2018-07-30T14:05:05.423Z,37.50
2018-07-30T14:07:33.638Z,37.20
2018-07-30T14:10:01.782Z,37.10
2018-07-30T14:12:29.941Z,37.20
2018-07-30T14:14:58.114Z,37.30
2018-07-30T14:17:26.236Z,37.20
2018-07-30T14:19:54.357Z,37.00
2018-07-30T14:22:22.541Z,36.80
2018-07-30T14:24:50.706Z,36.80
2018-07-30T14:27:18.887Z,36.60
2018-07-30T14:29:47.059Z,36.50
2018-07-30T14:32:15.170Z,36.40
2018-07-30T14:34:43.306Z,36.30
2018-07-30T14:37:11.441Z,36.20
2018-07-30T14:39:39.594Z,36.40
2018-07-30T14:42:07.711Z,36.60
2018-07-30T14:44:35.891Z,36.60
2018-07-30T14:47:03.980Z,36.40
2018-07-30T14:49:32.151Z,36.20
2018-07-30T14:52:00.223Z,35.90
2018-07-30T14:54:28.389Z,35.90
2018-07-30T14:56:56.554Z,35.80
2018-07-30T14:59:24.870Z,35.90
2018-07-30T15:01:52.886Z,35.80
2018-07-30T15:04:21.056Z,35.90
2018-07-30T15:06:49.186Z,35.90
2018-07-30T15:09:17.321Z,35.80
2018-07-30T15:11:45.445Z,35.80
2018-07-30T15:14:13.644Z,35.90
2018-07-30T15:16:41.741Z,36.00
2018-07-30T15:19:09.885Z,36.00
2018-07-30T15:21:37.991Z,35.80
2018-07-30T15:24:06.157Z,35.70
2018-07-30T15:26:34.314Z,35.80
2018-07-30T15:29:02.490Z,35.60
2018-07-30T15:31:30.696Z,35.50
2018-07-30T15:33:58.804Z,35.60
2018-07-30T15:36:26.902Z,35.30
2018-07-30T15:38:55.045Z,34.90
2018-07-30T15:41:23.317Z,35.10
2018-07-30T15:43:51.548Z,35.10
2018-07-30T15:46:19.685Z,34.90
2018-07-30T15:48:47.804Z,34.90
2018-07-30T15:51:15.911Z,34.90
2018-07-30T15:53:44.057Z,34.80
2018-07-30T15:56:12.213Z,34.60
2018-07-30T15:58:40.398Z,34.60
2018-07-30T16:01:08.535Z,34.60
2018-07-30T16:03:36.645Z,34.50
2018-07-30T16:08:32.738Z,34.40
2018-07-30T16:11:00.889Z,34.30
2018-07-30T16:13:29.113Z,34.10
2018-07-30T16:15:57.295Z,34.00
2018-07-30T16:18:25.417Z,34.00
2018-07-30T16:20:53.574Z,33.90
2018-07-30T16:23:21.728Z,33.80
2018-07-30T16:25:49.857Z,33.70
2018-07-30T16:28:18.029Z,33.60
2018-07-30T16:30:46.144Z,33.60
2018-07-30T16:33:14.289Z,33.60
2018-07-30T16:35:42.421Z,33.50
2018-07-30T16:38:10.540Z,33.30
2018-07-30T16:40:38.689Z,33.20
2018-07-30T16:43:06.790Z,33.20
2018-07-30T16:45:34.942Z,33.20
2018-07-30T16:48:03.050Z,33.10
2018-07-30T16:50:31.158Z,33.00
2018-07-30T16:52:59.257Z,32.80
2018-07-30T16:55:27.358Z,32.70
2018-07-30T16:57:55.500Z,32.60
2018-07-30T17:00:23.646Z,32.60
2018-07-30T17:02:52.034Z,32.50
2018-07-30T17:05:20.237Z,32.40
2018-07-30T17:10:16.373Z,32.10
2018-07-30T17:12:44.573Z,31.90
2018-07-30T17:15:12.725Z,31.70
2018-07-30T17:17:40.965Z,31.40
2018-07-30T17:20:11.305Z,31.20
2018-07-30T17:22:39.888Z,31.00
2018-07-30T17:25:08.032Z,30.80
2018-07-30T17:27:36.141Z,30.70
2018-07-30T17:30:04.908Z,30.50
2018-07-30T17:32:33.080Z,30.40
2018-07-30T17:35:01.595Z,30.40
2018-07-30T17:37:29.723Z,30.40
2018-07-30T17:39:57.842Z,30.30
2018-07-30T17:42:25.957Z,30.20
2018-07-30T17:44:54.503Z,30.10
2018-07-30T17:47:22.732Z,30.00
2018-07-30T17:49:50.897Z,29.90
2018-07-30T17:52:19.098Z,29.80
2018-07-30T17:54:47.202Z,29.80
2018-07-30T17:57:15.406Z,29.80
2018-07-30T17:59:43.631Z,29.70
2018-07-30T18:02:11.761Z,29.60
2018-07-30T18:04:39.902Z,29.50
2018-07-30T18:07:08.300Z,29.50
2018-07-30T18:09:36.459Z,29.40
2018-07-30T18:12:04.693Z,29.40
2018-07-30T18:14:32.824Z,29.30
2018-07-30T18:17:01.418Z,29.20
2018-07-30T18:19:29.513Z,29.10
2018-07-30T18:21:57.621Z,29.10
2018-07-30T18:24:25.818Z,29.00
2018-07-30T18:29:21.782Z,28.80
2018-07-30T18:31:50.136Z,28.70
2018-07-30T18:34:23.885Z,28.70
2018-07-30T18:36:52.022Z,28.60
2018-07-30T18:39:20.146Z,28.50
2018-07-30T18:41:48.329Z,28.40
2018-07-30T18:44:16.464Z,28.30
2018-07-30T18:46:44.593Z,28.20
2018-07-30T18:49:12.681Z,28.10
2018-07-30T18:51:40.813Z,28.00
2018-07-30T18:54:08.953Z,27.90
2018-07-30T18:56:37.092Z,27.80
2018-07-30T18:59:05.270Z,27.80
2018-07-30T19:01:33.380Z,27.70
2018-07-30T19:04:01.528Z,27.70
2018-07-30T19:06:29.654Z,27.60
2018-07-30T19:08:57.816Z,27.50
2018-07-30T19:11:26.003Z,27.50
2018-07-30T19:13:54.169Z,27.40
2018-07-30T19:16:22.308Z,27.40
2018-07-30T19:18:50.747Z,27.30
2018-07-30T19:21:18.869Z,27.30
2018-07-30T19:23:47.694Z,27.20
2018-07-30T19:26:15.860Z,27.10
2018-07-30T19:28:43.966Z,27.10
2018-07-30T19:31:12.063Z,27.00
2018-07-30T19:33:40.177Z,26.90
2018-07-30T19:36:08.297Z,26.80
2018-07-30T19:38:36.464Z,26.70
2018-07-30T19:41:04.573Z,26.60
2018-07-30T19:43:32.670Z,26.60
2018-07-30T19:46:00.791Z,26.50
2018-07-30T19:48:28.897Z,26.50
2018-07-30T19:50:57.010Z,26.40
2018-07-30T19:53:25.100Z,26.30
2018-07-30T19:55:59.977Z,26.30
2018-07-30T19:58:28.216Z,26.30
2018-07-30T20:00:56.270Z,26.20
2018-07-30T20:03:24.398Z,26.20
2018-07-30T20:05:52.490Z,26.10
2018-07-30T20:08:20.888Z,26.10
2018-07-30T20:10:49.020Z,26.00
2018-07-30T20:13:17.130Z,26.00
2018-07-30T20:15:45.422Z,25.90
2018-07-30T20:18:13.526Z,25.80
2018-07-30T20:20:41.651Z,25.80
2018-07-30T20:23:10.631Z,25.70
2018-07-30T20:25:38.850Z,25.70
2018-07-30T20:28:06.901Z,25.60
2018-07-30T20:30:35.046Z,25.60
2018-07-30T20:33:03.133Z,25.50
2018-07-30T20:35:31.249Z,25.50
2018-07-30T20:37:59.333Z,25.50
2018-07-30T20:40:27.586Z,25.40
2018-07-30T20:42:55.702Z,25.30
2018-07-30T20:45:23.801Z,25.30
2018-07-30T20:47:51.926Z,25.30
2018-07-30T20:50:20.035Z,25.20
2018-07-30T20:52:48.196Z,25.10
2018-07-30T20:55:16.289Z,25.10
2018-07-30T20:57:44.415Z,25.10
2018-07-30T21:00:12.537Z,25.00
2018-07-30T21:02:40.662Z,24.90
2018-07-30T21:05:08.815Z,24.90
2018-07-30T21:07:36.906Z,24.80
2018-07-30T21:10:05.289Z,24.80
2018-07-30T21:12:33.421Z,24.80
2018-07-30T21:15:02.089Z,24.70
2018-07-30T21:17:30.190Z,24.70
2018-07-30T21:19:58.286Z,24.70
2018-07-30T21:22:26.981Z,24.60
2018-07-30T21:24:55.133Z,24.60
2018-07-30T21:27:23.477Z,24.50
2018-07-30T21:29:51.592Z,24.50
2018-07-30T21:32:19.726Z,24.50
2018-07-30T21:34:47.836Z,24.40
2018-07-30T21:37:15.966Z,24.40
2018-07-30T21:39:44.105Z,24.40
2018-07-30T21:42:12.256Z,24.30
2018-07-30T21:44:40.365Z,24.30
2018-07-30T21:47:08.506Z,24.30
2018-07-30T21:49:36.612Z,24.20
2018-07-30T21:52:04.712Z,24.20
2018-07-30T21:54:32.821Z,24.10
2018-07-30T21:57:00.914Z,24.10
2018-07-30T21:59:29.005Z,24.10
2018-07-30T22:01:57.112Z,24.00
2018-07-30T22:04:25.251Z,24.00
2018-07-30T22:06:53.377Z,24.00
2018-07-30T22:09:21.521Z,23.90
2018-07-30T22:11:49.641Z,23.90
2018-07-30T22:14:17.795Z,23.80
2018-07-30T22:16:45.914Z,23.80
2018-07-30T22:19:14.041Z,23.80
2018-07-30T22:21:42.158Z,23.80
2018-07-30T22:24:10.271Z,23.70
2018-07-30T22:26:38.415Z,23.70
2018-07-30T22:29:06.546Z,23.70
2018-07-30T22:31:34.704Z,23.60
2018-07-30T22:34:02.822Z,23.60
2018-07-30T22:36:30.957Z,23.60
2018-07-30T22:38:59.069Z,23.50
2018-07-30T22:41:27.521Z,23.50
2018-07-30T22:43:55.609Z,23.50
2018-07-30T22:46:23.714Z,23.40
2018-07-30T22:48:52.052Z,23.40
2018-07-30T22:51:20.171Z,23.40
2018-07-30T22:53:48.269Z,23.40
2018-07-30T22:56:16.383Z,23.40
2018-07-30T22:58:44.515Z,23.30
2018-07-30T23:01:12.625Z,23.30
2018-07-30T23:03:41.893Z,23.20
2018-07-30T23:06:09.986Z,23.20
2018-07-30T23:08:38.094Z,23.20
2018-07-30T23:11:06.241Z,23.10
2018-07-30T23:13:34.342Z,23.10
2018-07-30T23:16:02.461Z,23.10
2018-07-30T23:18:30.587Z,23.00
2018-07-30T23:20:58.710Z,23.00
2018-07-30T23:23:26.802Z,23.00
2018-07-30T23:25:54.925Z,23.00
2018-07-30T23:28:23.020Z,22.90
2018-07-30T23:30:51.094Z,22.90
2018-07-30T23:33:19.225Z,22.90
2018-07-30T23:38:15.906Z,22.90
2018-07-30T23:40:44.079Z,22.90
2018-07-30T23:43:12.198Z,22.80
2018-07-30T23:45:40.339Z,22.80
2018-07-30T23:48:08.442Z,22.80
2018-07-30T23:50:36.566Z,22.80
2018-07-30T23:53:04.754Z,22.70
2018-07-30T23:55:32.878Z,22.70
2018-07-30T23:58:00.973Z,22.70
